Time;durP1;ratioP1;P1;durP2;ratioP2;P2;SDS_P1;SDS_P2;PMS_P1;PMS_P2;Temp;Humidity;BMP_temperature;BMP_pressure;BME280_temperature;BME280_humidity;BME280_pressure;Samples;Min_cycle;Max_cycle;Signal;HPM_P1;HPM_P2
2022/04/19 00:02:13;;;;;;;15.23;7.10;;;;;;;2.31;48.78;100881.92;1746400;82;25790;-61
2022/04/19 00:04:40;;;;;;;31.02;8.38;;;;;;;2.32;48.58;100881.44;1746677;82;26698;-61
2022/04/19 00:07:09;;;;;;;20.05;7.00;;;;;;;2.33;48.54;100885.81;1746219;82;25820;-61
2022/04/19 00:09:36;;;;;;;22.52;7.25;;;;;;;2.32;48.80;100882.77;1746523;80;27651;-61
2022/04/19 00:12:04;;;;;;;23.47;6.62;;;;;;;2.29;48.48;100872.30;1746151;80;25451;-61
2022/04/19 00:14:33;;;;;;;13.62;6.92;;;;;;;2.27;48.67;100880.36;1746775;82;25794;-61
2022/04/19 00:17:00;;;;;;;16.55;7.20;;;;;;;2.26;48.76;100881.77;1746330;82;25818;-61
2022/04/19 00:19:27;;;;;;;20.75;8.08;;;;;;;2.22;48.77;100877.09;1746750;82;25722;-61
2022/04/19 00:21:54;;;;;;;25.65;7.92;;;;;;;2.14;49.21;100880.14;1746596;82;27491;-60
2022/04/19 00:24:21;;;;;;;20.15;7.92;;;;;;;2.08;49.25;100879.13;1716740;83;25778;-61
2022/04/19 00:26:48;;;;;;;20.70;7.50;;;;;;;2.01;49.49;100879.06;1758192;80;25720;-61
2022/04/19 00:29:15;;;;;;;26.80;7.40;;;;;;;1.94;49.59;100877.19;1759193;81;25871;-61
2022/04/19 00:31:43;;;;;;;18.45;7.53;;;;;;;1.88;49.74;100888.12;1759614;80;25777;-61
2022/04/19 00:34:10;;;;;;;14.70;7.05;;;;;;;1.83;49.84;100882.17;1759065;80;27519;-61
2022/04/19 00:36:37;;;;;;;26.37;7.00;;;;;;;1.77;50.26;100878.02;1759327;81;25858;-61
2022/04/19 00:39:05;;;;;;;16.23;6.92;;;;;;;1.74;50.62;100878.65;1757081;80;25642;-61
2022/04/19 00:41:32;;;;;;;16.35;6.55;;;;;;;1.71;50.13;100876.53;1767236;80;25804;-61
2022/04/19 00:43:59;;;;;;;20.68;7.40;;;;;;;1.70;50.17;100872.64;1767441;81;25803;-61
2022/04/19 00:46:26;;;;;;;50.15;12.82;;;;;;;1.65;50.32;100872.87;1767705;79;27607;-62
2022/04/19 00:48:53;;;;;;;22.40;7.92;;;;;;;1.56;50.50;100875.53;1764488;81;25654;-61
2022/04/19 00:51:21;;;;;;;20.85;7.62;;;;;;;1.47;51.09;100873.77;1735307;81;26509;-61
2022/04/19 00:53:48;;;;;;;18.77;7.78;;;;;;;1.39;50.85;100862.24;1735503;81;25751;-61
2022/04/19 00:56:17;;;;;;;20.35;7.72;;;;;;;1.37;51.22;100866.27;1735368;81;25839;-61
2022/04/19 00:58:44;;;;;;;20.90;8.78;;;;;;;1.32;51.93;100870.08;1744605;80;27476;-61
2022/04/19 01:01:11;;;;;;;28.38;9.50;;;;;;;1.27;51.14;100868.97;1689623;84;25721;-62
2022/04/19 01:03:39;;;;;;;23.32;8.43;;;;;;;1.29;51.13;100866.27;1689630;84;25854;-61
2022/04/19 01:06:07;;;;;;;34.63;9.88;;;;;;;1.29;51.21;100863.62;1688848;84;25826;-61
2022/04/19 01:08:34;;;;;;;60.40;16.30;;;;;;;1.25;51.26;100867.73;1673663;84;25854;-62
2022/04/19 01:14:03;;;;;;;53.83;17.37;;;;;;;1.20;51.58;100864.91;1658121;86;26090;-61
2022/04/19 01:16:32;;;;;;;15.70;8.18;;;;;;;1.12;51.76;100858.63;1660026;86;25754;-61
2022/04/19 01:19:01;;;;;;;15.03;7.45;;;;;;;1.06;51.96;100856.28;1671958;85;26660;-61
2022/04/19 01:21:48;;;;;;;20.75;8.38;;;;;;;1.08;52.04;100866.35;1672146;85;25853;-61
2022/04/19 01:24:20;;;;;;;15.58;6.60;;;;;;;1.08;52.65;100861.90;1687797;85;28377;-61
2022/04/19 01:26:48;;;;;;;23.98;7.45;;;;;;;1.06;52.33;100870.86;1712238;83;25812;-62
2022/04/19 01:29:16;;;;;;;25.32;7.90;;;;;;;1.05;52.28;100866.48;1713789;83;25732;-61
2022/04/19 01:31:46;;;;;;;18.52;7.90;;;;;;;1.01;52.29;100865.78;1713603;83;25810;-62
2022/04/19 01:34:13;;;;;;;17.65;7.08;;;;;;;1.00;52.40;100865.38;1718540;83;25723;-62
2022/04/19 01:36:41;;;;;;;21.42;7.65;;;;;;;0.97;52.88;100860.69;1718108;82;27493;-61
2022/04/19 01:39:11;;;;;;;17.87;6.53;;;;;;;0.90;53.45;100871.59;1718490;83;25800;-61
2022/04/19 01:41:40;;;;;;;22.48;7.55;;;;;;;0.84;52.81;100866.58;1706649;82;25504;-62
2022/04/19 01:44:09;;;;;;;20.45;7.20;;;;;;;0.83;52.78;100867.95;1741318;81;25755;-62
2022/04/19 01:46:36;;;;;;;19.52;6.97;;;;;;;0.84;52.90;100862.61;1705104;84;25849;-61
2022/04/19 01:49:05;;;;;;;24.70;8.60;;;;;;;0.85;52.49;100861.66;1738378;81;28173;-62
2022/04/19 01:51:32;;;;;;;18.25;8.45;;;;;;;0.89;52.33;100861.92;1724493;83;25764;-62
2022/04/19 01:53:59;;;;;;;14.55;5.83;;;;;;;0.92;52.31;100864.88;1724621;82;25760;-61
2022/04/19 01:56:26;;;;;;;21.27;6.85;;;;;;;0.93;52.10;100858.21;1724641;81;25816;-61
2022/04/19 01:58:55;;;;;;;20.85;6.95;;;;;;;0.95;51.87;100864.75;1735464;82;25725;-61
2022/04/19 02:01:41;;;;;;;14.00;6.55;;;;;;;0.99;51.73;100864.14;1705287;84;27466;-61
2022/04/19 02:04:08;;;;;;;13.60;6.17;;;;;;;0.99;51.58;100861.01;1741004;81;25843;-62
2022/04/19 02:06:36;;;;;;;16.52;5.92;;;;;;;0.96;51.51;100861.63;1706142;82;25876;-62
2022/04/19 02:09:03;;;;;;;15.93;6.58;;;;;;;0.96;51.62;100868.24;1705689;83;26235;-62
2022/04/19 02:11:31;;;;;;;18.87;6.87;;;;;;;0.91;51.73;100856.09;1740973;82;25451;-60
2022/04/19 02:14:06;;;;;;;18.30;6.80;;;;;;;0.87;51.79;100861.13;1740563;81;28896;-60
2022/04/19 02:16:37;;;;;;;23.47;7.65;;;;;;;0.86;52.03;100852.78;1740805;81;25664;-61
2022/04/19 02:19:04;;;;;;;14.40;6.25;;;;;;;0.82;52.25;100867.11;1705245;84;25900;-60
2022/04/19 02:21:32;;;;;;;24.27;6.62;;;;;;;0.75;52.02;100859.91;1740948;81;25818;-60
2022/04/19 02:23:59;;;;;;;13.90;6.42;;;;;;;0.72;52.04;100857.87;1688496;83;25830;-61
2022/04/19 02:26:26;;;;;;;16.52;6.87;;;;;;;0.72;52.25;100860.52;1740934;82;27650;-61
2022/04/19 02:28:54;;;;;;;22.30;6.90;;;;;;;0.73;52.46;100856.47;1705572;83;25790;-61
2022/04/19 02:31:22;;;;;;;20.80;7.12;;;;;;;0.72;52.57;100856.55;1704365;82;25781;-61
2022/04/19 02:33:51;;;;;;;18.20;5.90;;;;;;;0.71;52.34;100861.00;1705189;84;25920;-61
2022/04/19 02:36:18;;;;;;;15.70;7.37;;;;;;;0.69;52.57;100865.50;1740893;82;25669;-61
2022/04/19 02:38:45;;;;;;;14.68;6.40;;;;;;;0.64;52.65;100863.98;1705250;83;28362;-61
2022/04/19 02:41:12;;;;;;;14.78;6.25;;;;;;;0.61;52.63;100861.87;1748410;81;25750;-61
2022/04/19 02:43:40;;;;;;;15.25;6.87;;;;;;;0.60;52.54;100868.09;1718632;83;25791;-61
2022/04/19 02:46:07;;;;;;;13.18;6.60;;;;;;;0.58;53.06;100872.58;1718147;83;25792;-61
2022/04/19 02:48:36;;;;;;;15.88;7.00;;;;;;;0.56;52.86;100873.14;1717910;83;25720;-61
2022/04/19 02:51:03;;;;;;;16.30;6.78;;;;;;;0.53;52.77;100870.63;1718390;83;27658;-61
2022/04/19 02:53:30;;;;;;;14.50;6.35;;;;;;;0.52;53.13;100875.52;1718045;83;25743;-61
2022/04/19 02:55:56;;;;;;;15.20;7.15;;;;;;;0.51;53.37;100875.59;1718223;83;25716;-61
2022/04/19 02:58:25;;;;;;;14.73;5.70;;;;;;;0.46;53.51;100870.03;1723441;82;25938;-61
2022/04/19 03:00:55;;;;;;;12.10;5.47;;;;;;;0.43;53.35;100879.90;1731145;82;25807;-61
2022/04/19 03:03:22;;;;;;;15.93;6.17;;;;;;;0.39;54.20;100875.69;1730704;81;27558;-60
2022/04/19 03:05:50;;;;;;;18.23;7.50;;;;;;;0.35;53.95;100874.09;1730536;81;25703;-61
2022/04/19 03:08:19;;;;;;;15.18;6.78;;;;;;;0.34;54.14;100877.66;1730918;82;25664;-60
2022/04/19 03:10:47;;;;;;;16.27;6.55;;;;;;;0.30;53.93;100875.61;1730964;81;25826;-60
2022/04/19 03:13:13;;;;;;;16.52;7.03;;;;;;;0.27;54.82;100884.55;1731312;82;25580;-60
2022/04/19 03:15:40;;;;;;;18.32;6.67;;;;;;;0.24;54.28;100883.83;1731049;81;27512;-60
2022/04/19 03:18:07;;;;;;;13.40;7.33;;;;;;;0.24;54.36;100886.00;1731262;81;25780;-61
2022/04/19 03:20:36;;;;;;;18.37;7.05;;;;;;;0.25;54.42;100889.05;1730642;82;25684;-60
2022/04/19 03:28:35;;;;;;;30.37;7.50;;;;;;;0.24;54.58;100897.06;1718685;83;27491;-61
2022/04/19 03:31:03;;;;;;;17.32;7.08;;;;;;;0.24;54.60;100890.45;1718261;83;25731;-60
2022/04/19 03:33:32;;;;;;;17.07;6.45;;;;;;;0.20;55.00;100902.95;1718324;83;25688;-60
2022/04/19 03:35:59;;;;;;;25.88;8.28;;;;;;;0.16;54.83;100901.35;1718302;82;26457;-60
2022/04/19 03:38:26;;;;;;;14.80;7.78;;;;;;;0.13;55.06;100900.18;1718564;82;25698;-61
2022/04/19 03:40:54;;;;;;;26.25;8.00;;;;;;;0.12;54.94;100902.42;1714993;83;27501;-60
2022/04/19 03:43:23;;;;;;;16.60;8.53;;;;;;;0.10;55.07;100901.63;1756481;81;25799;-60
2022/04/19 03:45:50;;;;;;;14.20;7.53;;;;;;;0.09;55.20;100900.75;1756347;81;25498;-60
2022/04/19 03:48:16;;;;;;;19.17;8.03;;;;;;;0.10;55.28;100900.30;1756441;81;25774;-61
2022/04/19 03:50:45;;;;;;;22.93;8.13;;;;;;;0.09;55.15;100898.10;1734273;80;25909;-60
2022/04/19 03:53:12;;;;;;;33.00;9.25;;;;;;;0.11;55.31;100904.19;1730235;81;27499;-60
2022/04/19 03:55:39;;;;;;;23.52;8.80;;;;;;;0.14;55.60;100905.84;1730345;81;26263;-60
2022/04/19 03:58:07;;;;;;;18.67;8.68;;;;;;;0.13;55.40;100908.96;1719583;81;25780;-61
2022/04/19 04:00:36;;;;;;;21.65;8.23;;;;;;;0.19;55.48;100910.94;1699459;83;25809;-60
2022/04/19 04:03:04;;;;;;;29.05;9.53;;;;;;;0.23;55.37;100917.35;1699687;83;26018;-60
2022/04/19 04:05:33;;;;;;;29.67;8.33;;;;;;;0.27;55.42;100918.95;1699687;84;28420;-61
2022/04/19 04:08:02;;;;;;;22.42;8.85;;;;;;;0.27;55.24;100918.11;1699279;84;25729;-61
2022/04/19 04:10:31;;;;;;;27.07;9.70;;;;;;;0.28;55.07;100919.36;1698956;84;25659;-61
2022/04/19 04:12:59;;;;;;;35.52;10.80;;;;;;;0.34;55.00;100916.03;1699426;84;27956;-61
2022/04/19 04:15:27;;;;;;;31.37;10.80;;;;;;;0.40;54.90;100931.67;1699464;83;26005;-61
2022/04/19 04:17:54;;;;;;;22.37;8.78;;;;;;;0.45;54.83;100925.69;1699524;84;27616;-61
2022/04/19 04:20:21;;;;;;;31.20;13.38;;;;;;;0.46;54.90;100932.71;1699455;84;25753;-62
2022/04/19 04:22:49;;;;;;;16.55;9.70;;;;;;;0.48;55.44;100932.19;1714393;82;25814;-62
2022/04/19 04:25:19;;;;;;;34.48;9.60;;;;;;;0.48;55.21;100936.61;1703656;83;25777;-62
2022/04/19 04:27:46;;;;;;;25.97;11.95;;;;;;;0.50;55.25;100935.60;1756373;80;26119;-61
2022/04/19 04:30:13;;;;;;;28.80;11.15;;;;;;;0.54;55.11;100934.55;1756386;81;27697;-62
2022/04/19 04:32:42;;;;;;;27.20;10.13;;;;;;;0.60;55.28;100934.75;1755735;80;25792;-60
2022/04/19 04:35:10;;;;;;;20.55;10.63;;;;;;;0.59;54.23;100937.00;1756494;80;25801;-60
2022/04/19 04:37:37;;;;;;;44.18;12.43;;;;;;;0.57;53.92;100943.70;1756485;81;25841;-61
2022/04/19 04:40:07;;;;;;;20.68;9.70;;;;;;;0.57;53.55;100938.41;1756431;81;25470;-60
2022/04/19 04:42:51;;;;;;;23.32;9.75;;;;;;;0.49;53.30;100940.53;1765626;79;27712;-61
2022/04/19 04:45:18;;;;;;;27.13;8.90;;;;;;;0.55;53.21;100942.89;1767270;79;25700;-61
2022/04/19 04:50:33;;;;;;;36.88;11.53;;;;;;;0.60;52.67;100946.19;1742646;81;26910;-62
2022/04/19 04:53:02;;;;;;;27.30;10.82;;;;;;;0.67;52.59;100940.64;1735669;82;25764;-62
2022/04/19 04:55:32;;;;;;;31.60;13.18;;;;;;;0.73;52.31;100943.01;1735454;81;27206;-62
2022/04/19 04:58:01;;;;;;;27.00;10.23;;;;;;;0.73;52.13;100940.36;1740791;81;26119;-62
2022/04/19 05:00:29;;;;;;;29.12;10.25;;;;;;;0.74;52.15;100938.11;1754238;81;25483;-62
2022/04/19 05:02:58;;;;;;;19.30;8.68;;;;;;;0.83;52.10;100937.70;1754045;81;25793;-62
2022/04/19 05:05:25;;;;;;;21.17;9.35;;;;;;;0.98;52.05;100952.04;1718321;83;25804;-62
2022/04/19 05:07:53;;;;;;;26.37;9.25;;;;;;;0.99;51.34;100946.27;1718524;83;27636;-62
2022/04/19 05:10:21;;;;;;;37.38;17.57;;;;;;;0.99;51.24;100946.27;1718084;83;25719;-62
2022/04/19 05:12:47;;;;;;;19.27;9.80;;;;;;;1.02;51.60;100938.19;1700313;84;25855;-62
2022/04/19 05:15:16;;;;;;;22.15;9.58;;;;;;;1.08;51.10;100942.71;1699401;84;25820;-62
2022/04/19 05:17:44;;;;;;;21.35;9.48;;;;;;;1.12;50.78;100940.77;1700376;84;25993;-62
2022/04/19 05:20:11;;;;;;;22.98;9.30;;;;;;;1.13;50.74;100942.50;1700018;84;27507;-62
2022/04/19 05:22:38;;;;;;;26.12;9.10;;;;;;;1.15;50.30;100942.45;1671064;85;25782;-62
2022/04/19 05:25:07;;;;;;;22.30;10.43;;;;;;;1.18;49.79;100950.23;1692462;82;25732;-62
2022/04/19 05:27:34;;;;;;;26.93;11.05;;;;;;;1.24;49.82;100944.19;1683587;83;25935;-62
2022/04/19 05:30:01;;;;;;;45.92;17.65;;;;;;;1.31;49.99;100942.12;1710179;83;26123;-62
2022/04/19 05:32:29;;;;;;;28.73;12.55;;;;;;;1.40;50.03;100940.81;1710194;83;27442;-62
2022/04/19 05:34:57;;;;;;;23.55;10.43;;;;;;;1.55;49.96;100944.08;1709894;83;25747;-60
2022/04/19 05:37:24;;;;;;;26.20;10.75;;;;;;;1.67;49.35;100942.61;1710062;83;26150;-61
2022/04/19 05:39:51;;;;;;;25.70;10.63;;;;;;;1.78;49.24;100943.41;1710046;83;25935;-62
2022/04/19 05:42:19;;;;;;;24.57;9.45;;;;;;;1.83;49.18;100938.75;1699748;83;25777;-63
2022/04/19 05:44:48;;;;;;;28.12;9.98;;;;;;;1.90;48.85;100937.11;1692392;83;27456;-60
2022/04/19 05:47:16;;;;;;;27.52;10.13;;;;;;;2.00;48.91;100943.68;1756097;81;25924;-62
2022/04/19 05:49:43;;;;;;;29.55;9.80;;;;;;;2.12;48.59;100939.55;1726528;82;25753;-62
2022/04/19 05:52:10;;;;;;;20.32;9.75;;;;;;;2.19;48.38;100943.15;1738087;81;26161;-62
2022/04/19 05:54:37;;;;;;;25.08;10.58;;;;;;;2.27;48.21;100936.59;1738326;82;25716;-62
2022/04/19 05:57:05;;;;;;;18.52;9.18;;;;;;;2.41;48.24;100937.20;1737954;81;28129;-62
2022/04/19 05:59:33;;;;;;;21.85;10.75;;;;;;;2.51;47.85;100939.74;1740312;81;25817;-62
2022/04/19 06:04:52;;;;;;;29.10;11.60;;;;;;;2.68;47.42;100932.23;1740855;82;25827;-60
2022/04/19 06:07:24;;;;;;;27.15;10.70;;;;;;;2.78;47.12;100936.12;1741035;81;25724;-60
2022/04/19 06:09:52;;;;;;;26.05;10.53;;;;;;;2.82;47.40;100934.99;1740593;81;27452;-61
2022/04/19 06:12:20;;;;;;;25.08;10.18;;;;;;;2.92;47.09;100942.02;1722913;81;25743;-61
2022/04/19 06:14:49;;;;;;;28.55;12.70;;;;;;;2.94;46.75;100937.48;1718339;80;25796;-62
2022/04/19 06:17:19;;;;;;;25.20;9.60;;;;;;;3.00;46.86;100937.63;1707944;84;26742;-62
2022/04/19 06:19:46;;;;;;;23.50;9.88;;;;;;;3.04;46.69;100937.84;1708840;80;25713;-62
2022/04/19 06:22:13;;;;;;;21.07;8.80;;;;;;;3.13;46.71;100942.65;1711639;82;27349;-62
2022/04/19 06:24:42;;;;;;;24.65;10.13;;;;;;;3.19;46.78;100949.44;1738858;82;25551;-61
2022/04/19 06:27:09;;;;;;;24.40;9.85;;;;;;;3.27;46.85;100947.70;1740950;82;25739;-61
2022/04/19 06:29:37;;;;;;;31.50;9.38;;;;;;;3.37;46.75;100948.87;1705102;84;27031;-61
2022/04/19 06:32:07;;;;;;;28.27;10.58;;;;;;;3.43;46.65;100950.34;1740900;81;25713;-61
2022/04/19 06:34:35;;;;;;;28.45;10.60;;;;;;;3.47;46.56;100949.23;1741108;81;27687;-61
2022/04/19 06:37:05;;;;;;;26.68;11.12;;;;;;;3.54;46.72;100949.27;1740536;81;26468;-60
2022/04/19 06:39:32;;;;;;;24.57;9.98;;;;;;;3.56;46.68;100951.84;1740983;81;25834;-61
2022/04/19 06:42:00;;;;;;;28.52;11.45;;;;;;;3.62;46.70;100955.50;1707276;82;25813;-61
2022/04/19 06:44:29;;;;;;;29.40;12.55;;;;;;;3.70;46.57;100948.39;1745934;80;25795;-60
2022/04/19 06:46:57;;;;;;;31.73;11.63;;;;;;;3.83;46.47;100950.76;1754191;80;28391;-61
2022/04/19 06:49:26;;;;;;;30.23;9.98;;;;;;;3.94;46.58;100955.45;1772934;80;25550;-61
2022/04/19 06:51:54;;;;;;;25.50;9.28;;;;;;;4.01;46.66;100949.30;1748656;81;25745;-61
2022/04/19 06:54:21;;;;;;;21.50;8.93;;;;;;;4.12;46.52;100950.88;1749052;82;25930;-62
2022/04/19 06:56:52;;;;;;;30.30;9.95;;;;;;;4.25;46.37;100958.99;1748754;82;25894;-61
2022/04/19 06:59:21;;;;;;;21.95;8.85;;;;;;;4.34;46.27;100958.91;1737994;82;27527;-61
2022/04/19 07:01:49;;;;;;;15.28;7.50;;;;;;;4.47;46.03;100958.57;1749060;82;25776;-61
2022/04/19 07:04:34;;;;;;;20.75;7.72;;;;;;;4.54;45.62;100956.38;1748951;82;26270;-62
2022/04/19 07:07:03;;;;;;;20.43;8.63;;;;;;;4.61;45.64;100951.08;1748611;81;25826;-61
2022/04/19 07:09:30;;;;;;;16.27;8.08;;;;;;;4.71;45.60;100955.36;1748798;82;25802;-62
2022/04/19 07:11:59;;;;;;;31.15;9.18;;;;;;;4.80;45.46;100952.59;1749051;82;27593;-62
2022/04/19 07:14:28;;;;;;;20.85;9.10;;;;;;;4.88;45.44;100947.67;1748613;80;25704;-62
2022/04/19 07:16:54;;;;;;;23.50;7.90;;;;;;;4.99;45.25;100934.50;1712994;83;25795;-62
2022/04/19 07:19:22;;;;;;;20.02;7.78;;;;;;;5.08;45.19;100940.21;1748706;82;26975;-60
2022/04/19 07:27:23;;;;;;;23.55;10.18;;;;;;;5.35;44.63;100938.08;1761814;81;25696;-61
2022/04/19 07:29:50;;;;;;;23.22;8.70;;;;;;;5.44;44.49;100934.36;1761756;80;25730;-61
2022/04/19 07:32:18;;;;;;;31.48;8.63;;;;;;;5.56;44.34;100923.36;1761954;81;26381;-62
2022/04/19 07:34:51;;;;;;;33.42;9.65;;;;;;;5.65;44.38;100919.22;1760049;80;25703;-62
2022/04/19 07:37:18;;;;;;;23.25;8.58;;;;;;;5.79;44.36;100917.85;1761610;80;27445;-62
2022/04/19 07:39:46;;;;;;;23.42;9.15;;;;;;;5.91;44.30;100914.00;1761620;81;25767;-62
2022/04/19 07:42:13;;;;;;;26.40;7.87;;;;;;;6.04;44.11;100918.06;1760231;81;25791;-62
2022/04/19 07:44:44;;;;;;;19.50;8.48;;;;;;;6.14;43.99;100919.13;1756255;81;25859;-62
2022/04/19 07:47:09;;;;;;;19.95;8.95;;;;;;;6.27;43.80;100913.84;1755849;80;26383;-62
2022/04/19 07:49:36;;;;;;;21.55;8.43;;;;;;;6.36;43.20;100912.34;1744517;80;27550;-62
2022/04/19 07:52:05;;;;;;;15.95;7.87;;;;;;;6.42;42.92;100918.59;1724390;81;26031;-62
2022/04/19 07:54:31;;;;;;;12.45;7.75;;;;;;;6.55;43.06;100911.45;1724666;82;25809;-61
2022/04/19 07:56:58;;;;;;;23.10;8.50;;;;;;;6.72;42.33;100906.73;1724725;83;26440;-62
2022/04/19 07:59:25;;;;;;;19.55;8.43;;;;;;;6.84;42.42;100898.32;1730381;81;25737;-61
2022/04/19 08:01:52;;;;;;;14.33;6.47;;;;;;;7.00;42.53;100896.25;1730293;82;27523;-62
2022/04/19 08:04:20;;;;;;;12.18;4.95;;;;;;;7.18;42.33;100896.77;1730207;82;25634;-61
2022/04/19 08:06:47;;;;;;;12.80;3.98;;;;;;;7.33;41.33;100897.94;1724870;81;25492;-61
2022/04/19 08:09:14;;;;;;;13.30;4.35;;;;;;;7.52;41.07;100897.47;1711423;83;25813;-61
2022/04/19 08:11:42;;;;;;;13.28;4.30;;;;;;;7.62;39.25;100895.78;1711638;82;25544;-61
2022/04/19 08:14:09;;;;;;;6.37;3.12;;;;;;;7.64;38.84;100890.34;1676863;85;27423;-62
2022/04/19 08:16:36;;;;;;;10.72;3.40;;;;;;;7.76;39.42;100885.39;1711334;83;26302;-62
2022/04/19 08:19:02;;;;;;;9.48;3.77;;;;;;;7.90;39.04;100889.70;1711511;83;25697;-61
2022/04/19 08:21:29;;;;;;;8.08;3.37;;;;;;;8.02;38.39;100883.05;1711391;82;26428;-62
2022/04/19 08:23:56;;;;;;;6.03;4.10;;;;;;;8.14;38.47;100880.29;1735818;80;25804;-62
2022/04/19 08:26:23;;;;;;;6.70;3.37;;;;;;;8.27;38.47;100874.00;1740706;82;27479;-62
2022/04/19 08:28:50;;;;;;;8.83;3.58;;;;;;;8.38;37.59;100867.30;1705726;84;25844;-61
2022/04/19 08:31:17;;;;;;;10.58;3.95;;;;;;;8.56;37.45;100867.73;1741121;82;25970;-62
2022/04/19 08:33:43;;;;;;;10.35;4.45;;;;;;;8.81;37.14;100855.05;1705585;84;26824;-62
2022/04/19 08:36:12;;;;;;;5.35;3.02;;;;;;;9.05;36.95;100853.56;1704975;82;26124;-61
2022/04/19 08:38:39;;;;;;;6.75;3.35;;;;;;;9.27;36.42;100856.33;1740931;81;27463;-61
2022/04/19 08:41:06;;;;;;;7.25;3.10;;;;;;;9.52;35.73;100845.27;1705198;84;25727;-63
2022/04/19 08:43:34;;;;;;;9.53;3.20;;;;;;;9.71;35.67;100843.25;1749850;81;25803;-60
2022/04/19 08:46:02;;;;;;;8.38;2.83;;;;;;;9.97;35.06;100839.32;1718242;83;26739;-61
2022/04/19 08:48:31;;;;;;;11.20;3.45;;;;;;;10.18;35.16;100843.34;1718000;82;25664;-62
2022/04/19 08:51:02;;;;;;;6.65;2.65;;;;;;;10.22;34.06;100843.45;1718258;83;28144;-62
2022/04/19 08:59:04;;;;;;;3.75;2.33;;;;;;;10.99;34.42;100822.44;1718654;82;25904;-62
2022/04/19 09:01:32;;;;;;;9.28;2.33;;;;;;;11.32;33.27;100819.53;1718116;83;25689;-62
2022/04/19 09:03:59;;;;;;;10.45;3.08;;;;;;;11.56;32.46;100816.44;1718423;83;27711;-63
2022/04/19 09:06:50;;;;;;;8.00;2.75;;;;;;;11.71;31.43;100810.97;1718111;83;25797;-63
2022/04/19 09:09:25;;;;;;;8.30;2.83;;;;;;;11.94;31.13;100820.08;1718466;83;25817;-61
2022/04/19 09:11:55;;;;;;;6.85;2.75;;;;;;;12.20;29.88;100810.92;1716858;83;25881;-62
2022/04/19 09:14:23;;;;;;;4.17;2.65;;;;;;;12.41;30.77;100801.78;1691716;83;25827;-62
2022/04/19 09:16:55;;;;;;;5.28;2.67;;;;;;;12.68;29.74;100790.66;1718500;83;28501;-62
2022/04/19 09:19:31;;;;;;;7.15;3.50;;;;;;;13.05;29.75;100791.06;1716424;83;25658;-62
2022/04/19 09:21:58;;;;;;;9.20;3.90;;;;;;;13.37;29.35;100781.61;1718255;83;25812;-62
2022/04/19 09:24:27;;;;;;;7.05;3.40;;;;;;;13.67;28.75;100775.47;1683944;83;25810;-61
2022/04/19 09:26:54;;;;;;;7.80;2.70;;;;;;;13.89;26.86;100782.74;1656402;86;26032;-61
2022/04/19 09:29:25;;;;;;;7.30;2.77;;;;;;;13.64;27.14;100777.64;1706660;84;27473;-62
2022/04/19 09:32:02;;;;;;;4.83;2.67;;;;;;;13.66;26.73;100769.74;1706624;84;25697;-62
2022/04/19 09:34:33;;;;;;;5.97;2.77;;;;;;;14.05;27.25;100776.61;1706552;84;25797;-62
2022/04/19 09:37:14;;;;;;;4.67;2.65;;;;;;;14.61;26.44;100783.01;1706600;84;25834;-62
2022/04/19 09:39:44;;;;;;;9.05;2.62;;;;;;;14.78;26.25;100778.03;1706613;83;25712;-62
2022/04/19 09:42:13;;;;;;;10.68;2.52;;;;;;;15.10;24.69;100780.48;1706748;84;28083;-62
2022/04/19 09:44:52;;;;;;;10.65;2.65;;;;;;;15.37;25.20;100775.79;1698000;83;25796;-62
2022/04/19 09:47:20;;;;;;;5.62;2.40;;;;;;;15.60;24.96;100775.97;1698112;84;25722;-62
2022/04/19 09:49:49;;;;;;;7.10;3.20;;;;;;;16.05;24.97;100772.39;1685945;84;25799;-61
2022/04/19 09:52:29;;;;;;;10.55;3.60;;;;;;;16.56;25.45;100767.19;1671263;84;25821;-62
2022/04/19 09:55:09;;;;;;;6.65;2.47;;;;;;;17.07;24.83;100761.86;1670936;84;27519;-62
2022/04/19 09:57:39;;;;;;;5.83;2.25;;;;;;;17.49;23.81;100762.76;1674311;84;25791;-62
2022/04/19 10:00:11;;;;;;;7.53;2.58;;;;;;;18.04;23.81;100765.36;1698097;84;25841;-62
2022/04/19 10:08:21;;;;;;;14.20;2.10;;;;;;;17.58;23.00;100754.00;1698263;84;27468;-62
2022/04/19 10:10:51;;;;;;;6.67;2.08;;;;;;;18.09;22.86;100752.56;1698057;84;25506;-62
2022/04/19 10:13:23;;;;;;;6.90;2.05;;;;;;;18.34;22.62;100756.36;1698313;84;25785;-62
2022/04/19 10:15:49;;;;;;;6.08;2.10;;;;;;;18.46;20.56;100770.68;1697859;84;25836;-61
2022/04/19 10:18:16;;;;;;;5.22;2.33;;;;;;;18.71;21.62;100755.39;1698365;84;25705;-61
2022/04/19 10:20:54;;;;;;;7.62;2.30;;;;;;;19.21;21.25;100756.93;1698119;84;27690;-61
2022/04/19 10:23:39;;;;;;;1.90;1.60;;;;;;;19.53;20.34;100752.52;1698271;84;25551;-61
2022/04/19 10:26:24;;;;;;;7.03;2.95;;;;;;;19.69;20.51;100748.14;1740830;82;25795;-61
2022/04/19 10:28:58;;;;;;;5.05;2.35;;;;;;;20.22;20.69;100748.77;1705250;84;25810;-61
2022/04/19 10:31:31;;;;;;;3.67;2.20;;;;;;;20.77;19.15;100743.38;1705264;84;25737;-63
2022/04/19 10:34:07;;;;;;;8.13;2.65;;;;;;;20.66;19.37;100752.16;1740759;82;28174;-62
2022/04/19 10:36:40;;;;;;;7.08;2.42;;;;;;;20.60;20.07;100746.98;1705357;83;25756;-62
2022/04/19 10:39:18;;;;;;;5.97;2.25;;;;;;;20.21;18.72;100750.66;1740816;81;25633;-61
2022/04/19 10:42:02;;;;;;;7.72;2.22;;;;;;;19.69;19.83;100752.77;1705525;83;25819;-61
2022/04/19 10:44:35;;;;;;;4.30;2.33;;;;;;;19.88;19.20;100749.06;1740847;82;25762;-62
2022/04/19 10:47:12;;;;;;;4.20;2.35;;;;;;;19.66;19.70;100743.59;1705517;84;28619;-61
2022/04/19 10:49:50;;;;;;;6.08;2.35;;;;;;;19.42;18.74;100744.84;1734394;81;25748;-62
2022/04/19 10:52:43;;;;;;;5.10;2.65;;;;;;;18.80;19.33;100743.01;1724754;83;25665;-63
2022/04/19 10:55:21;;;;;;;4.00;2.10;;;;;;;18.40;19.80;100741.98;1724679;81;25870;-61
2022/04/19 10:58:08;;;;;;;3.45;2.33;;;;;;;18.23;19.97;100746.80;1728361;82;25833;-61
2022/04/19 11:00:48;;;;;;;8.75;2.40;;;;;;;17.93;20.16;100748.09;1705053;84;27591;-61
2022/04/19 11:03:46;;;;;;;8.15;2.70;;;;;;;17.75;20.44;100743.00;1740936;81;25935;-60
2022/04/19 11:06:35;;;;;;;13.38;3.22;;;;;;;17.51;20.82;100740.81;1704928;83;25868;-60
2022/04/19 11:09:26;;;;;;;10.63;4.50;;;;;;;17.79;20.77;100735.65;1673658;85;25727;-61
2022/04/19 11:11:53;;;;;;;8.68;3.52;;;;;;;17.80;20.42;100740.56;1673119;84;25733;-60
2022/04/19 11:14:41;;;;;;;8.00;2.72;;;;;;;17.81;20.38;100743.09;1674736;84;33263;-61
2022/04/19 11:17:27;;;;;;;15.00;3.27;;;;;;;17.83;21.31;100745.64;1680598;85;25966;-62
2022/04/19 11:19:57;;;;;;;11.08;3.00;;;;;;;17.95;20.69;100738.70;1681272;85;25827;-60
2022/04/19 11:22:29;;;;;;;8.50;3.17;;;;;;;17.82;20.71;100742.06;1686808;83;25822;-61
2022/04/19 11:25:07;;;;;;;7.25;3.55;;;;;;;17.47;21.49;100732.70;1708946;83;25877;-61
2022/04/19 11:27:58;;;;;;;12.37;2.70;;;;;;;17.41;21.49;100731.55;1707014;83;28228;-60
2022/04/19 11:30:27;;;;;;;9.40;2.95;;;;;;;17.53;21.59;100731.43;1707552;83;25821;-60
2022/04/19 11:32:58;;;;;;;9.95;2.40;;;;;;;17.77;21.65;100725.95;1707723;83;25804;-60
2022/04/19 11:35:27;;;;;;;12.45;2.58;;;;;;;17.90;20.91;100726.67;1707838;82;26808;-60
2022/04/19 11:37:54;;;;;;;13.38;3.08;;;;;;;17.93;21.39;100728.51;1707515;82;26137;-60
2022/04/19 11:48:51;;;;;;;6.33;2.25;;;;;;;17.80;20.14;100710.09;1767363;80;25677;-60
2022/04/19 11:51:20;;;;;;;4.45;2.25;;;;;;;18.08;20.41;100708.67;1753335;81;26012;-61
2022/04/19 11:53:49;;;;;;;8.45;3.05;;;;;;;18.31;20.13;100703.12;1754383;81;28150;-61
2022/04/19 11:56:16;;;;;;;8.68;3.20;;;;;;;18.26;20.32;100696.02;1754278;81;25790;-61
2022/04/19 11:58:51;;;;;;;6.37;2.47;;;;;;;18.34;20.14;100697.28;1754332;81;25731;-61
2022/04/19 12:01:17;;;;;;;13.18;3.05;;;;;;;18.53;20.08;100700.45;1754381;81;25807;-61
2022/04/19 12:03:44;;;;;;;5.65;2.40;;;;;;;18.52;19.94;100703.70;1718458;83;25711;-61
2022/04/19 12:06:15;;;;;;;14.20;3.27;;;;;;;18.49;19.41;100696.44;1718198;83;27479;-61
2022/04/19 12:08:45;;;;;;;5.45;2.10;;;;;;;18.44;19.50;100696.48;1718101;83;25696;-61
2022/04/19 12:11:27;;;;;;;4.58;2.40;;;;;;;18.37;19.74;100686.55;1718441;83;25881;-61
2022/04/19 12:13:55;;;;;;;11.33;3.08;;;;;;;18.39;19.94;100688.05;1718335;83;26671;-60
2022/04/19 12:16:38;;;;;;;5.22;2.60;;;;;;;18.23;19.50;100693.17;1718181;83;25843;-61